sensor_id;sensor_type;location;lat;lon;timestamp;temperature;humidity
22069;DHT22;13887;57.196;-2.100;2022-11-15T00:01:42;11.16;86.12
22069;DHT22;13887;57.196;-2.100;2022-11-15T00:04:27;11.16;86.15
22069;DHT22;13887;57.196;-2.100;2022-11-15T00:07:13;11.17;86.09
22069;DHT22;13887;57.196;-2.100;2022-11-15T00:10:18;11.15;86.22
22069;DHT22;13887;57.196;-2.100;2022-11-15T00:13:05;11.16;86.25
22069;DHT22;13887;57.196;-2.100;2022-11-15T00:15:51;11.16;86.29
22069;DHT22;13887;57.196;-2.100;2022-11-15T00:18:37;11.17;86.29
22069;DHT22;13887;57.196;-2.100;2022-11-15T00:21:23;11.16;86.37
22069;DHT22;13887;57.196;-2.100;2022-11-15T00:24:08;11.18;86.33
22069;DHT22;13887;57.196;-2.100;2022-11-15T00:26:53;11.17;86.31
22069;DHT22;13887;57.196;-2.100;2022-11-15T00:29:39;11.15;86.32
22069;DHT22;13887;57.196;-2.100;2022-11-15T00:32:31;11.17;86.24
22069;DHT22;13887;57.196;-2.100;2022-11-15T00:35:17;11.18;86.29
22069;DHT22;13887;57.196;-2.100;2022-11-15T00:38:03;11.16;86.46
22069;DHT22;13887;57.196;-2.100;2022-11-15T00:40:48;11.16;86.51
22069;DHT22;13887;57.196;-2.100;2022-11-15T00:43:33;11.19;86.43
22069;DHT22;13887;57.196;-2.100;2022-11-15T00:46:20;11.18;86.49
22069;DHT22;13887;57.196;-2.100;2022-11-15T00:49:05;11.17;86.70
22069;DHT22;13887;57.196;-2.100;2022-11-15T00:51:51;11.17;86.77
22069;DHT22;13887;57.196;-2.100;2022-11-15T00:54:36;11.17;86.78
22069;DHT22;13887;57.196;-2.100;2022-11-15T00:57:21;11.20;86.69
22069;DHT22;13887;57.196;-2.100;2022-11-15T01:00:07;11.20;86.74
22069;DHT22;13887;57.196;-2.100;2022-11-15T01:02:53;11.20;86.62
22069;DHT22;13887;57.196;-2.100;2022-11-15T01:05:39;11.20;86.73
22069;DHT22;13887;57.196;-2.100;2022-11-15T01:08:24;11.20;86.80
22069;DHT22;13887;57.196;-2.100;2022-11-15T01:11:11;11.20;86.96
22069;DHT22;13887;57.196;-2.100;2022-11-15T01:13:57;11.22;86.96
22069;DHT22;13887;57.196;-2.100;2022-11-15T01:16:43;11.25;87.05
22069;DHT22;13887;57.196;-2.100;2022-11-15T01:19:28;11.24;87.21
22069;DHT22;13887;57.196;-2.100;2022-11-15T01:22:14;11.24;87.28
22069;DHT22;13887;57.196;-2.100;2022-11-15T01:24:59;11.22;87.48
22069;DHT22;13887;57.196;-2.100;2022-11-15T01:27:44;11.22;87.41
22069;DHT22;13887;57.196;-2.100;2022-11-15T01:30:30;11.25;87.35
22069;DHT22;13887;57.196;-2.100;2022-11-15T01:33:15;11.24;87.42
22069;DHT22;13887;57.196;-2.100;2022-11-15T01:36:10;11.24;87.43
22069;DHT22;13887;57.196;-2.100;2022-11-15T01:38:57;11.24;87.45
22069;DHT22;13887;57.196;-2.100;2022-11-15T01:41:42;11.26;87.50
22069;DHT22;13887;57.196;-2.100;2022-11-15T01:47:23;11.24;87.67
22069;DHT22;13887;57.196;-2.100;2022-11-15T01:50:14;11.25;87.46
22069;DHT22;13887;57.196;-2.100;2022-11-15T01:53:00;11.23;87.55
22069;DHT22;13887;57.196;-2.100;2022-11-15T01:55:45;11.25;87.50
22069;DHT22;13887;57.196;-2.100;2022-11-15T01:58:31;11.25;87.46
22069;DHT22;13887;57.196;-2.100;2022-11-15T02:01:17;11.26;87.34
22069;DHT22;13887;57.196;-2.100;2022-11-15T02:04:11;11.25;87.58
22069;DHT22;13887;57.196;-2.100;2022-11-15T02:06:57;11.25;87.54
22069;DHT22;13887;57.196;-2.100;2022-11-15T02:09:44;11.23;87.62
22069;DHT22;13887;57.196;-2.100;2022-11-15T02:12:30;11.25;87.43
22069;DHT22;13887;57.196;-2.100;2022-11-15T02:15:17;11.25;87.52
22069;DHT22;13887;57.196;-2.100;2022-11-15T02:18:26;11.23;87.44
22069;DHT22;13887;57.196;-2.100;2022-11-15T02:36:07;11.24;87.15
22069;DHT22;13887;57.196;-2.100;2022-11-15T02:39:13;11.27;87.02
22069;DHT22;13887;57.196;-2.100;2022-11-15T02:42:12;11.26;87.13
22069;DHT22;13887;57.196;-2.100;2022-11-15T02:45:30;11.23;87.21
22069;DHT22;13887;57.196;-2.100;2022-11-15T02:48:17;11.24;87.24
22069;DHT22;13887;57.196;-2.100;2022-11-15T02:51:04;11.23;87.28
22069;DHT22;13887;57.196;-2.100;2022-11-15T02:53:49;11.22;87.32
22069;DHT22;13887;57.196;-2.100;2022-11-15T02:56:34;11.22;87.35
22069;DHT22;13887;57.196;-2.100;2022-11-15T03:05:22;11.26;87.25
22069;DHT22;13887;57.196;-2.100;2022-11-15T03:11:10;11.25;87.41
22069;DHT22;13887;57.196;-2.100;2022-11-15T03:14:00;11.26;87.33
22069;DHT22;13887;57.196;-2.100;2022-11-15T03:19:54;11.24;87.42
22069;DHT22;13887;57.196;-2.100;2022-11-15T03:22:42;11.26;87.41
22069;DHT22;13887;57.196;-2.100;2022-11-15T03:25:29;11.22;87.51
22069;DHT22;13887;57.196;-2.100;2022-11-15T03:28:23;11.23;87.38
22069;DHT22;13887;57.196;-2.100;2022-11-15T03:31:12;11.23;87.30
22069;DHT22;13887;57.196;-2.100;2022-11-15T03:34:31;11.22;87.19
22069;DHT22;13887;57.196;-2.100;2022-11-15T03:37:21;11.22;87.15
22069;DHT22;13887;57.196;-2.100;2022-11-15T03:40:08;11.20;87.09
22069;DHT22;13887;57.196;-2.100;2022-11-15T03:43:14;11.22;86.95
22069;DHT22;13887;57.196;-2.100;2022-11-15T03:46:23;11.24;87.05
22069;DHT22;13887;57.196;-2.100;2022-11-15T03:49:15;11.24;87.08
22069;DHT22;13887;57.196;-2.100;2022-11-15T03:52:04;11.22;87.03
22069;DHT22;13887;57.196;-2.100;2022-11-15T03:54:53;11.23;86.96
22069;DHT22;13887;57.196;-2.100;2022-11-15T03:57:39;11.23;86.94
22069;DHT22;13887;57.196;-2.100;2022-11-15T04:00:25;11.23;86.80
22069;DHT22;13887;57.196;-2.100;2022-11-15T04:03:10;11.22;86.99
22069;DHT22;13887;57.196;-2.100;2022-11-15T04:05:56;11.19;87.35
22069;DHT22;13887;57.196;-2.100;2022-11-15T04:08:41;11.20;87.28
22069;DHT22;13887;57.196;-2.100;2022-11-15T04:11:27;11.20;87.46
22069;DHT22;13887;57.196;-2.100;2022-11-15T04:14:12;11.20;87.48
22069;DHT22;13887;57.196;-2.100;2022-11-15T04:16:57;11.20;87.64
22069;DHT22;13887;57.196;-2.100;2022-11-15T04:19:43;11.22;87.68
22069;DHT22;13887;57.196;-2.100;2022-11-15T04:22:47;11.19;87.98
22069;DHT22;13887;57.196;-2.100;2022-11-15T04:25:52;11.17;88.12
22069;DHT22;13887;57.196;-2.100;2022-11-15T04:28:39;11.20;88.27
22069;DHT22;13887;57.196;-2.100;2022-11-15T04:31:44;11.19;88.50
22069;DHT22;13887;57.196;-2.100;2022-11-15T04:34:30;11.18;88.73
22069;DHT22;13887;57.196;-2.100;2022-11-15T04:37:15;11.16;88.86
22069;DHT22;13887;57.196;-2.100;2022-11-15T04:40:01;11.16;88.99
22069;DHT22;13887;57.196;-2.100;2022-11-15T04:42:47;11.13;89.10
22069;DHT22;13887;57.196;-2.100;2022-11-15T04:45:32;11.14;89.02
22069;DHT22;13887;57.196;-2.100;2022-11-15T04:48:18;11.15;89.11
22069;DHT22;13887;57.196;-2.100;2022-11-15T04:51:03;11.15;89.09
22069;DHT22;13887;57.196;-2.100;2022-11-15T04:53:48;11.18;88.91
22069;DHT22;13887;57.196;-2.100;2022-11-15T04:56:34;11.18;88.99
22069;DHT22;13887;57.196;-2.100;2022-11-15T04:59:19;11.18;88.93
22069;DHT22;13887;57.196;-2.100;2022-11-15T05:02:05;11.17;88.89
22069;DHT22;13887;57.196;-2.100;2022-11-15T05:04:50;11.17;89.00
22069;DHT22;13887;57.196;-2.100;2022-11-15T05:07:36;11.16;88.99
22069;DHT22;13887;57.196;-2.100;2022-11-15T05:10:21;11.16;88.85
22069;DHT22;13887;57.196;-2.100;2022-11-15T05:13:07;11.16;88.88
22069;DHT22;13887;57.196;-2.100;2022-11-15T05:15:52;11.16;88.80
22069;DHT22;13887;57.196;-2.100;2022-11-15T05:18:38;11.18;88.67
22069;DHT22;13887;57.196;-2.100;2022-11-15T05:21:25;11.17;88.66
22069;DHT22;13887;57.196;-2.100;2022-11-15T05:24:11;11.22;88.46
22069;DHT22;13887;57.196;-2.100;2022-11-15T05:26:56;11.18;88.54
22069;DHT22;13887;57.196;-2.100;2022-11-15T05:29:42;11.17;88.64
22069;DHT22;13887;57.196;-2.100;2022-11-15T05:32:28;11.18;88.60
22069;DHT22;13887;57.196;-2.100;2022-11-15T05:35:19;11.16;88.62
22069;DHT22;13887;57.196;-2.100;2022-11-15T05:38:05;11.17;88.67
22069;DHT22;13887;57.196;-2.100;2022-11-15T05:40:51;11.18;88.54
22069;DHT22;13887;57.196;-2.100;2022-11-15T05:43:37;11.19;88.52
22069;DHT22;13887;57.196;-2.100;2022-11-15T05:46:24;11.20;88.54
22069;DHT22;13887;57.196;-2.100;2022-11-15T05:49:12;11.23;88.53
22069;DHT22;13887;57.196;-2.100;2022-11-15T05:51:58;11.22;88.64
22069;DHT22;13887;57.196;-2.100;2022-11-15T05:54:44;11.22;88.71
22069;DHT22;13887;57.196;-2.100;2022-11-15T05:57:29;11.20;88.67
22069;DHT22;13887;57.196;-2.100;2022-11-15T06:00:15;11.22;88.64
22069;DHT22;13887;57.196;-2.100;2022-11-15T06:03:00;11.18;88.77
22069;DHT22;13887;57.196;-2.100;2022-11-15T06:05:46;11.19;88.67
22069;DHT22;13887;57.196;-2.100;2022-11-15T06:08:31;11.22;88.69
22069;DHT22;13887;57.196;-2.100;2022-11-15T06:11:17;11.22;88.61
22069;DHT22;13887;57.196;-2.100;2022-11-15T06:14:02;11.25;88.61
22069;DHT22;13887;57.196;-2.100;2022-11-15T06:16:48;11.24;88.70
22069;DHT22;13887;57.196;-2.100;2022-11-15T06:19:33;11.24;88.79
22069;DHT22;13887;57.196;-2.100;2022-11-15T06:22:18;11.23;88.92
22069;DHT22;13887;57.196;-2.100;2022-11-15T06:25:04;11.24;88.92
22069;DHT22;13887;57.196;-2.100;2022-11-15T06:27:53;11.24;88.99
22069;DHT22;13887;57.196;-2.100;2022-11-15T06:30:39;11.25;88.99
22069;DHT22;13887;57.196;-2.100;2022-11-15T06:33:24;11.24;88.99
22069;DHT22;13887;57.196;-2.100;2022-11-15T06:36:12;11.24;89.00
22069;DHT22;13887;57.196;-2.100;2022-11-15T06:39:04;11.24;89.12
22069;DHT22;13887;57.196;-2.100;2022-11-15T06:41:49;11.24;89.12
22069;DHT22;13887;57.196;-2.100;2022-11-15T06:44:34;11.24;89.18
22069;DHT22;13887;57.196;-2.100;2022-11-15T06:47:20;11.25;89.20
22069;DHT22;13887;57.196;-2.100;2022-11-15T06:50:06;11.26;89.31
22069;DHT22;13887;57.196;-2.100;2022-11-15T06:52:51;11.26;89.28
22069;DHT22;13887;57.196;-2.100;2022-11-15T06:55:36;11.26;89.24
22069;DHT22;13887;57.196;-2.100;2022-11-15T06:58:22;11.25;89.31
22069;DHT22;13887;57.196;-2.100;2022-11-15T07:01:10;11.25;89.29
22069;DHT22;13887;57.196;-2.100;2022-11-15T07:03:56;11.25;89.32
22069;DHT22;13887;57.196;-2.100;2022-11-15T07:06:42;11.25;89.43
22069;DHT22;13887;57.196;-2.100;2022-11-15T07:09:27;11.25;89.56
22069;DHT22;13887;57.196;-2.100;2022-11-15T07:12:13;11.24;89.57
22069;DHT22;13887;57.196;-2.100;2022-11-15T07:14:58;11.26;89.46
22069;DHT22;13887;57.196;-2.100;2022-11-15T07:17:43;11.27;89.48
22069;DHT22;13887;57.196;-2.100;2022-11-15T07:20:28;11.24;89.49
22069;DHT22;13887;57.196;-2.100;2022-11-15T07:23:14;11.26;89.50
22069;DHT22;13887;57.196;-2.100;2022-11-15T07:25:59;11.27;89.49
22069;DHT22;13887;57.196;-2.100;2022-11-15T07:28:45;11.25;89.67
22069;DHT22;13887;57.196;-2.100;2022-11-15T07:31:30;11.27;89.67
22069;DHT22;13887;57.196;-2.100;2022-11-15T07:34:16;11.25;89.83
22069;DHT22;13887;57.196;-2.100;2022-11-15T07:37:01;11.22;90.18
22069;DHT22;13887;57.196;-2.100;2022-11-15T07:39:47;11.24;90.08
22069;DHT22;13887;57.196;-2.100;2022-11-15T07:42:32;11.25;90.12
22069;DHT22;13887;57.196;-2.100;2022-11-15T07:45:41;11.24;90.24
22069;DHT22;13887;57.196;-2.100;2022-11-15T07:48:26;11.28;90.05
22069;DHT22;13887;57.196;-2.100;2022-11-15T07:51:27;11.26;90.05
22069;DHT22;13887;57.196;-2.100;2022-11-15T07:54:12;11.25;90.07
22069;DHT22;13887;57.196;-2.100;2022-11-15T07:56:58;11.26;89.95
22069;DHT22;13887;57.196;-2.100;2022-11-15T07:59:51;11.27;89.86
22069;DHT22;13887;57.196;-2.100;2022-11-15T08:02:36;11.26;90.04
22069;DHT22;13887;57.196;-2.100;2022-11-15T08:05:21;11.27;90.05
22069;DHT22;13887;57.196;-2.100;2022-11-15T08:08:08;11.26;90.63
22069;DHT22;13887;57.196;-2.100;2022-11-15T08:10:54;11.29;90.32
22069;DHT22;13887;57.196;-2.100;2022-11-15T08:13:39;11.30;90.07
22069;DHT22;13887;57.196;-2.100;2022-11-15T08:16:25;11.30;90.04
22069;DHT22;13887;57.196;-2.100;2022-11-15T08:19:10;11.29;90.24
22069;DHT22;13887;57.196;-2.100;2022-11-15T08:21:56;11.29;90.14
22069;DHT22;13887;57.196;-2.100;2022-11-15T08:24:41;11.27;90.19
22069;DHT22;13887;57.196;-2.100;2022-11-15T08:27:26;11.28;90.21
22069;DHT22;13887;57.196;-2.100;2022-11-15T08:30:12;11.27;90.34
22069;DHT22;13887;57.196;-2.100;2022-11-15T08:32:58;11.28;90.23
22069;DHT22;13887;57.196;-2.100;2022-11-15T08:35:44;11.29;90.32
22069;DHT22;13887;57.196;-2.100;2022-11-15T08:38:29;11.29;90.37
22069;DHT22;13887;57.196;-2.100;2022-11-15T08:41:36;11.29;90.41
22069;DHT22;13887;57.196;-2.100;2022-11-15T08:44:22;11.27;90.76
22069;DHT22;13887;57.196;-2.100;2022-11-15T08:47:11;11.26;90.83
22069;DHT22;13887;57.196;-2.100;2022-11-15T08:49:57;11.25;90.92
22069;DHT22;13887;57.196;-2.100;2022-11-15T08:52:42;11.26;91.01
22069;DHT22;13887;57.196;-2.100;2022-11-15T08:55:28;11.26;91.27
22069;DHT22;13887;57.196;-2.100;2022-11-15T08:58:13;11.24;91.41
22069;DHT22;13887;57.196;-2.100;2022-11-15T09:00:59;11.25;91.47
22069;DHT22;13887;57.196;-2.100;2022-11-15T09:03:44;11.25;91.63
22069;DHT22;13887;57.196;-2.100;2022-11-15T09:06:30;11.25;91.69
22069;DHT22;13887;57.196;-2.100;2022-11-15T09:09:16;11.24;91.81
22069;DHT22;13887;57.196;-2.100;2022-11-15T09:12:02;11.23;91.88
22069;DHT22;13887;57.196;-2.100;2022-11-15T09:14:47;11.22;92.04
22069;DHT22;13887;57.196;-2.100;2022-11-15T09:17:33;11.26;91.86
22069;DHT22;13887;57.196;-2.100;2022-11-15T09:20:18;11.25;91.84
22069;DHT22;13887;57.196;-2.100;2022-11-15T09:23:05;11.26;91.77
22069;DHT22;13887;57.196;-2.100;2022-11-15T09:25:51;11.27;91.67
22069;DHT22;13887;57.196;-2.100;2022-11-15T09:28:36;11.24;91.65
22069;DHT22;13887;57.196;-2.100;2022-11-15T09:31:23;11.26;91.60
22069;DHT22;13887;57.196;-2.100;2022-11-15T09:34:09;11.27;91.55
22069;DHT22;13887;57.196;-2.100;2022-11-15T09:36:55;11.28;91.40
22069;DHT22;13887;57.196;-2.100;2022-11-15T09:39:40;11.27;91.44
22069;DHT22;13887;57.196;-2.100;2022-11-15T09:42:35;11.28;91.30
22069;DHT22;13887;57.196;-2.100;2022-11-15T09:45:34;11.27;91.30
22069;DHT22;13887;57.196;-2.100;2022-11-15T09:51:53;11.26;91.15
22069;DHT22;13887;57.196;-2.100;2022-11-15T09:54:33;11.26;91.09
22069;DHT22;13887;57.196;-2.100;2022-11-15T10:00:04;11.27;91.10
22069;DHT22;13887;57.196;-2.100;2022-11-15T10:03:16;11.26;91.08
22069;DHT22;13887;57.196;-2.100;2022-11-15T10:05:49;11.27;91.00
22069;DHT22;13887;57.196;-2.100;2022-11-15T10:11:19;11.28;91.10
22069;DHT22;13887;57.196;-2.100;2022-11-15T10:16:54;11.29;91.16
22069;DHT22;13887;57.196;-2.100;2022-11-15T10:19:28;11.28;91.15
22069;DHT22;13887;57.196;-2.100;2022-11-15T10:22:11;11.29;91.13
22069;DHT22;13887;57.196;-2.100;2022-11-15T10:24:42;11.29;91.31
22069;DHT22;13887;57.196;-2.100;2022-11-15T10:27:13;11.29;91.27
22069;DHT22;13887;57.196;-2.100;2022-11-15T10:29:50;11.31;91.25
22069;DHT22;13887;57.196;-2.100;2022-11-15T10:32:21;11.28;91.57
22069;DHT22;13887;57.196;-2.100;2022-11-15T10:34:49;11.28;91.56
22069;DHT22;13887;57.196;-2.100;2022-11-15T10:37:30;11.27;91.73
22069;DHT22;13887;57.196;-2.100;2022-11-15T10:40:21;11.30;91.94
22069;DHT22;13887;57.196;-2.100;2022-11-15T10:43:04;11.32;91.66
22069;DHT22;13887;57.196;-2.100;2022-11-15T10:45:33;11.33;91.63
22069;DHT22;13887;57.196;-2.100;2022-11-15T10:50:41;11.30;92.11
22069;DHT22;13887;57.196;-2.100;2022-11-15T10:53:26;11.31;92.12
22069;DHT22;13887;57.196;-2.100;2022-11-15T10:55:59;11.32;92.27
22069;DHT22;13887;57.196;-2.100;2022-11-15T10:58:34;11.33;92.24
22069;DHT22;13887;57.196;-2.100;2022-11-15T11:01:31;11.32;92.38
22069;DHT22;13887;57.196;-2.100;2022-11-15T11:04:11;11.32;92.59
22069;DHT22;13887;57.196;-2.100;2022-11-15T11:09:36;11.32;92.92
22069;DHT22;13887;57.196;-2.100;2022-11-15T11:12:05;11.31;93.13
22069;DHT22;13887;57.196;-2.100;2022-11-15T11:14:35;11.31;93.18
22069;DHT22;13887;57.196;-2.100;2022-11-15T11:17:04;11.33;93.18
22069;DHT22;13887;57.196;-2.100;2022-11-15T11:25:11;11.33;93.66
22069;DHT22;13887;57.196;-2.100;2022-11-15T11:28:08;11.32;93.84
22069;DHT22;13887;57.196;-2.100;2022-11-15T11:33:59;11.33;93.72
22069;DHT22;13887;57.196;-2.100;2022-11-15T11:49:34;11.36;94.14
22069;DHT22;13887;57.196;-2.100;2022-11-15T12:00:26;11.31;93.44
22069;DHT22;13887;57.196;-2.100;2022-11-15T12:05:54;11.31;92.17
22069;DHT22;13887;57.196;-2.100;2022-11-15T12:08:41;11.30;91.68
22069;DHT22;13887;57.196;-2.100;2022-11-15T12:17:22;11.38;91.92
22069;DHT22;13887;57.196;-2.100;2022-11-15T12:19:51;11.39;91.92
22069;DHT22;13887;57.196;-2.100;2022-11-15T12:22:22;11.40;92.30
22069;DHT22;13887;57.196;-2.100;2022-11-15T12:25:00;11.39;92.51
22069;DHT22;13887;57.196;-2.100;2022-11-15T12:28:01;11.42;92.71
22069;DHT22;13887;57.196;-2.100;2022-11-15T12:30:50;11.43;93.10
22069;DHT22;13887;57.196;-2.100;2022-11-15T12:33:34;11.43;93.17
22069;DHT22;13887;57.196;-2.100;2022-11-15T12:36:08;11.45;93.53
22069;DHT22;13887;57.196;-2.100;2022-11-15T12:47:22;11.48;93.66
22069;DHT22;13887;57.196;-2.100;2022-11-15T12:49:50;11.47;93.69
22069;DHT22;13887;57.196;-2.100;2022-11-15T12:52:17;11.47;93.67
22069;DHT22;13887;57.196;-2.100;2022-11-15T12:54:56;11.47;93.69
22069;DHT22;13887;57.196;-2.100;2022-11-15T12:57:28;11.47;93.38
22069;DHT22;13887;57.196;-2.100;2022-11-15T12:59:57;11.44;93.39
22069;DHT22;13887;57.196;-2.100;2022-11-15T13:17:53;11.34;92.74
22069;DHT22;13887;57.196;-2.100;2022-11-15T13:20:29;11.34;92.69
22069;DHT22;13887;57.196;-2.100;2022-11-15T13:23:15;11.33;92.66
22069;DHT22;13887;57.196;-2.100;2022-11-15T13:28:31;11.32;92.34
22069;DHT22;13887;57.196;-2.100;2022-11-15T13:31:13;11.33;92.24
22069;DHT22;13887;57.196;-2.100;2022-11-15T13:33:41;11.34;92.11
22069;DHT22;13887;57.196;-2.100;2022-11-15T13:38:44;11.34;92.11
22069;DHT22;13887;57.196;-2.100;2022-11-15T13:41:20;11.36;92.00
22069;DHT22;13887;57.196;-2.100;2022-11-15T13:43:49;11.37;91.90
22069;DHT22;13887;57.196;-2.100;2022-11-15T13:46:24;11.37;91.92
22069;DHT22;13887;57.196;-2.100;2022-11-15T13:48:57;11.40;91.85
22069;DHT22;13887;57.196;-2.100;2022-11-15T13:51:47;11.38;91.80
22069;DHT22;13887;57.196;-2.100;2022-11-15T13:54:34;11.38;91.79
22069;DHT22;13887;57.196;-2.100;2022-11-15T13:57:08;11.37;91.80
22069;DHT22;13887;57.196;-2.100;2022-11-15T14:00:24;11.37;91.71
22069;DHT22;13887;57.196;-2.100;2022-11-15T14:02:40;11.37;91.59
22069;DHT22;13887;57.196;-2.100;2022-11-15T14:05:16;11.38;91.50
22069;DHT22;13887;57.196;-2.100;2022-11-15T14:08:03;11.39;91.47
22069;DHT22;13887;57.196;-2.100;2022-11-15T14:10:33;11.38;91.47
22069;DHT22;13887;57.196;-2.100;2022-11-15T14:13:00;11.40;91.47
22069;DHT22;13887;57.196;-2.100;2022-11-15T14:15:31;11.39;91.56
22069;DHT22;13887;57.196;-2.100;2022-11-15T14:17:59;11.38;91.77
22069;DHT22;13887;57.196;-2.100;2022-11-15T14:20:36;11.38;91.76
22069;DHT22;13887;57.196;-2.100;2022-11-15T14:23:19;11.38;91.90
22069;DHT22;13887;57.196;-2.100;2022-11-15T14:25:55;11.40;91.74
22069;DHT22;13887;57.196;-2.100;2022-11-15T14:30:50;11.37;92.02
22069;DHT22;13887;57.196;-2.100;2022-11-15T14:33:25;11.37;92.20
22069;DHT22;13887;57.196;-2.100;2022-11-15T14:35:57;11.33;92.44
22069;DHT22;13887;57.196;-2.100;2022-11-15T14:38:25;11.36;92.39
22069;DHT22;13887;57.196;-2.100;2022-11-15T14:40:52;11.34;92.52
22069;DHT22;13887;57.196;-2.100;2022-11-15T14:43:20;11.36;92.44
22069;DHT22;13887;57.196;-2.100;2022-11-15T14:45:47;11.37;92.50
22069;DHT22;13887;57.196;-2.100;2022-11-15T14:48:14;11.36;92.56
22069;DHT22;13887;57.196;-2.100;2022-11-15T14:50:41;11.34;92.70
22069;DHT22;13887;57.196;-2.100;2022-11-15T14:53:12;11.34;92.69
22069;DHT22;13887;57.196;-2.100;2022-11-15T14:55:39;11.34;92.88
22069;DHT22;13887;57.196;-2.100;2022-11-15T14:58:07;11.34;93.03
22069;DHT22;13887;57.196;-2.100;2022-11-15T15:00:36;11.34;93.07
22069;DHT22;13887;57.196;-2.100;2022-11-15T15:03:04;11.33;93.08
22069;DHT22;13887;57.196;-2.100;2022-11-15T15:05:36;11.34;93.04
22069;DHT22;13887;57.196;-2.100;2022-11-15T15:08:04;11.34;93.21
22069;DHT22;13887;57.196;-2.100;2022-11-15T15:10:35;11.37;93.11
22069;DHT22;13887;57.196;-2.100;2022-11-15T15:13:17;11.34;93.23
22069;DHT22;13887;57.196;-2.100;2022-11-15T15:15:45;11.33;93.22
22069;DHT22;13887;57.196;-2.100;2022-11-15T15:18:13;11.34;93.21
22069;DHT22;13887;57.196;-2.100;2022-11-15T15:20:41;11.37;93.14
22069;DHT22;13887;57.196;-2.100;2022-11-15T15:23:19;11.36;93.24
22069;DHT22;13887;57.196;-2.100;2022-11-15T15:25:47;11.34;93.34
22069;DHT22;13887;57.196;-2.100;2022-11-15T15:28:15;11.36;93.26
22069;DHT22;13887;57.196;-2.100;2022-11-15T15:30:42;11.33;93.33
22069;DHT22;13887;57.196;-2.100;2022-11-15T15:33:09;11.33;93.33
22069;DHT22;13887;57.196;-2.100;2022-11-15T15:35:36;11.32;93.59
22069;DHT22;13887;57.196;-2.100;2022-11-15T15:38:03;11.32;93.71
22069;DHT22;13887;57.196;-2.100;2022-11-15T15:40:31;11.31;93.75
22069;DHT22;13887;57.196;-2.100;2022-11-15T15:42:59;11.31;93.75
22069;DHT22;13887;57.196;-2.100;2022-11-15T15:45:26;11.31;93.89
22069;DHT22;13887;57.196;-2.100;2022-11-15T15:47:54;11.29;94.06
22069;DHT22;13887;57.196;-2.100;2022-11-15T15:52:52;11.31;94.21
22069;DHT22;13887;57.196;-2.100;2022-11-15T15:55:20;11.29;94.30
22069;DHT22;13887;57.196;-2.100;2022-11-15T15:57:48;11.32;94.26
22069;DHT22;13887;57.196;-2.100;2022-11-15T16:00:15;11.33;94.35
22069;DHT22;13887;57.196;-2.100;2022-11-15T16:02:43;11.33;94.50
22069;DHT22;13887;57.196;-2.100;2022-11-15T16:05:10;11.32;94.63
22069;DHT22;13887;57.196;-2.100;2022-11-15T16:07:38;11.32;94.69
22069;DHT22;13887;57.196;-2.100;2022-11-15T16:10:29;11.33;94.69
22069;DHT22;13887;57.196;-2.100;2022-11-15T16:12:57;11.32;94.82
22069;DHT22;13887;57.196;-2.100;2022-11-15T16:15:26;11.32;94.85
22069;DHT22;13887;57.196;-2.100;2022-11-15T16:17:58;11.34;94.81
22069;DHT22;13887;57.196;-2.100;2022-11-15T16:20:31;11.33;94.98
22069;DHT22;13887;57.196;-2.100;2022-11-15T16:22:59;11.34;94.81
22069;DHT22;13887;57.196;-2.100;2022-11-15T16:25:47;11.36;94.96
22069;DHT22;13887;57.196;-2.100;2022-11-15T16:28:20;11.34;95.07
22069;DHT22;13887;57.196;-2.100;2022-11-15T16:30:48;11.34;95.07
22069;DHT22;13887;57.196;-2.100;2022-11-15T16:33:22;11.37;95.12
22069;DHT22;13887;57.196;-2.100;2022-11-15T16:35:49;11.37;95.36
22069;DHT22;13887;57.196;-2.100;2022-11-15T16:38:17;11.37;95.35
22069;DHT22;13887;57.196;-2.100;2022-11-15T16:40:44;11.38;95.19
22069;DHT22;13887;57.196;-2.100;2022-11-15T16:43:11;11.37;95.35
22069;DHT22;13887;57.196;-2.100;2022-11-15T16:45:38;11.38;95.33
22069;DHT22;13887;57.196;-2.100;2022-11-15T16:48:05;11.38;95.36
22069;DHT22;13887;57.196;-2.100;2022-11-15T16:50:34;11.38;95.34
22069;DHT22;13887;57.196;-2.100;2022-11-15T16:53:06;11.40;95.51
22069;DHT22;13887;57.196;-2.100;2022-11-15T16:55:33;11.41;95.45
22069;DHT22;13887;57.196;-2.100;2022-11-15T16:58:00;11.40;95.46
22069;DHT22;13887;57.196;-2.100;2022-11-15T17:00:27;11.40;95.58
22069;DHT22;13887;57.196;-2.100;2022-11-15T17:02:54;11.39;95.73
22069;DHT22;13887;57.196;-2.100;2022-11-15T17:05:23;11.39;95.68
22069;DHT22;13887;57.196;-2.100;2022-11-15T17:07:50;11.40;95.49
22069;DHT22;13887;57.196;-2.100;2022-11-15T17:10:24;11.39;95.72
22069;DHT22;13887;57.196;-2.100;2022-11-15T17:12:53;11.40;95.59
22069;DHT22;13887;57.196;-2.100;2022-11-15T17:15:20;11.41;95.52
22069;DHT22;13887;57.196;-2.100;2022-11-15T17:17:52;11.41;95.65
22069;DHT22;13887;57.196;-2.100;2022-11-15T17:20:22;11.41;95.65
22069;DHT22;13887;57.196;-2.100;2022-11-15T17:22:50;11.41;95.59
22069;DHT22;13887;57.196;-2.100;2022-11-15T17:25:18;11.41;95.59
22069;DHT22;13887;57.196;-2.100;2022-11-15T17:27:45;11.41;95.72
22069;DHT22;13887;57.196;-2.100;2022-11-15T17:30:12;11.41;95.87
22069;DHT22;13887;57.196;-2.100;2022-11-15T17:32:42;11.41;95.89
22069;DHT22;13887;57.196;-2.100;2022-11-15T17:35:10;11.42;95.73
22069;DHT22;13887;57.196;-2.100;2022-11-15T17:37:42;11.43;95.94
22069;DHT22;13887;57.196;-2.100;2022-11-15T17:40:09;11.51;97.06
22069;DHT22;13887;57.196;-2.100;2022-11-15T17:42:36;11.55;96.29
22069;DHT22;13887;57.196;-2.100;2022-11-15T17:45:06;11.54;96.21
22069;DHT22;13887;57.196;-2.100;2022-11-15T17:47:36;11.49;96.52
22069;DHT22;13887;57.196;-2.100;2022-11-15T17:50:03;11.47;96.60
22069;DHT22;13887;57.196;-2.100;2022-11-15T17:52:30;11.47;96.57
22069;DHT22;13887;57.196;-2.100;2022-11-15T17:54:57;11.47;96.51
22069;DHT22;13887;57.196;-2.100;2022-11-15T17:57:24;11.47;96.49
22069;DHT22;13887;57.196;-2.100;2022-11-15T17:59:50;11.47;96.48
22069;DHT22;13887;57.196;-2.100;2022-11-15T18:02:17;11.47;96.55
22069;DHT22;13887;57.196;-2.100;2022-11-15T18:04:45;11.46;96.68
22069;DHT22;13887;57.196;-2.100;2022-11-15T18:07:12;11.46;96.69
22069;DHT22;13887;57.196;-2.100;2022-11-15T18:09:39;11.47;96.62
22069;DHT22;13887;57.196;-2.100;2022-11-15T18:12:10;11.45;96.71
22069;DHT22;13887;57.196;-2.100;2022-11-15T18:14:37;11.46;96.85
22069;DHT22;13887;57.196;-2.100;2022-11-15T18:17:05;11.47;96.64
22069;DHT22;13887;57.196;-2.100;2022-11-15T18:19:31;11.49;96.50
22069;DHT22;13887;57.196;-2.100;2022-11-15T18:21:59;11.46;96.61
22069;DHT22;13887;57.196;-2.100;2022-11-15T18:24:32;11.48;96.48
22069;DHT22;13887;57.196;-2.100;2022-11-15T18:27:02;11.51;96.36
22069;DHT22;13887;57.196;-2.100;2022-11-15T18:29:29;11.59;96.14
22069;DHT22;13887;57.196;-2.100;2022-11-15T18:31:56;11.64;95.74
22069;DHT22;13887;57.196;-2.100;2022-11-15T18:34:26;11.66;95.84
22069;DHT22;13887;57.196;-2.100;2022-11-15T18:36:59;11.64;95.74
22069;DHT22;13887;57.196;-2.100;2022-11-15T18:39:26;11.62;95.88